Time;durP1;ratioP1;P1;durP2;ratioP2;P2;SDS_P1;SDS_P2;PMS_P1;PMS_P2;Temp;Humidity;BMP_temperature;BMP_pressure;BME280_temperature;BME280_humidity;BME280_pressure;Samples;Min_cycle;Max_cycle;Signal;HPM_P1;HPM_P2
2023/05/17 00:03:19;;;;;;;;;;;14.70;38.80;;;13.43;41.11;101469.16;12259202;19;19995;-89
2023/05/17 00:07:21;;;;;;;;;;;14.60;38.70;;;13.44;41.13;101483.94;12260969;19;19927;-88
2023/05/17 00:11:22;;;;;;;;;;;14.50;38.70;;;13.27;41.33;101459.47;12257046;19;19929;-88
2023/05/17 00:15:24;;;;;;;;;;;14.50;38.70;;;13.04;41.29;101429.25;12259091;19;20225;-88
2023/05/17 00:19:26;;;;;;;;;;;14.40;38.80;;;13.25;41.21;101484.91;12259507;19;19922;-88
2023/05/17 00:23:27;;;;;;;;;;;14.30;38.80;;;13.19;41.19;101484.41;12258998;19;19922;-88
2023/05/17 00:27:29;;;;;;;;;;;14.30;38.80;;;13.14;41.27;101487.28;12259528;19;19919;-88
2023/05/17 00:31:31;;;;;;;;;;;14.20;38.80;;;12.97;41.27;101477.69;12255147;19;19931;-88
2023/05/17 00:35:33;;;;;;;;;;;14.20;38.90;;;12.99;41.29;101488.13;12256216;19;19919;-88
2023/05/17 00:39:34;;;;;;;;;;;14.00;38.90;;;12.89;41.31;101481.66;12255809;19;19915;-88
2023/05/17 00:43:36;;;;;;;;;;;14.00;38.90;;;12.64;41.50;101454.13;12257462;19;19917;-88
2023/05/17 00:47:38;;;;;;;;;;;14.00;39.00;;;12.81;41.42;101495.16;12257768;19;20275;-88
2023/05/17 00:51:40;;;;;;;;;;;13.90;39.00;;;12.47;41.39;101459.34;12255525;19;19923;-89
2023/05/17 00:55:43;;;;;;;;;;;14.00;39.20;;;12.60;41.48;101477.00;12259069;19;20254;-88
2023/05/17 00:59:45;;;;;;;;;;;13.80;39.10;;;12.60;41.48;101489.25;12254876;19;20003;-88
2023/05/17 01:03:48;;;;;;;;;;;13.80;39.20;;;12.39;41.42;101468.47;12255779;19;19914;-88
2023/05/17 01:07:50;;;;;;;;;;;13.70;39.20;;;12.34;41.45;101456.50;12254822;19;19939;-88
2023/05/17 01:12:03;;;;;;;;;;;13.70;39.30;;;12.55;41.66;101492.09;12252914;19;19927;-88
2023/05/17 01:16:14;;;;;;;;;;;13.70;39.30;;;12.21;41.64;101453.69;12258588;19;19919;-88
2023/05/17 01:20:16;;;;;;;;;;;13.60;39.50;;;12.46;41.62;101500.44;12255052;19;19911;-88
2023/05/17 01:24:24;;;;;;;;;;;13.70;39.50;;;12.43;41.54;101508.44;12257414;19;19918;-88
2023/05/17 01:28:27;;;;;;;;;;;13.50;39.50;;;12.23;41.81;101472.75;12249988;19;19943;-88
2023/05/17 01:36:47;;;;;;;;;;;13.50;39.50;;;12.14;41.74;101473.25;12227047;19;19922;-90
2023/05/17 01:40:54;;;;;;;;;;;13.50;39.60;;;12.43;41.49;101523.31;12255872;19;19911;-91
2023/05/17 01:45:06;;;;;;;;;;;13.50;39.70;;;12.34;41.67;101517.63;12254440;19;19919;-91
2023/05/17 01:49:16;;;;;;;;;;;13.50;39.70;;;12.35;41.69;101519.31;12256416;19;19915;-89
2023/05/17 01:53:37;;;;;;;;;;;13.50;39.70;;;12.38;41.48;101524.38;12252702;19;19926;-89
2023/05/17 01:57:42;;;;;;;;;;;13.50;39.70;;;12.30;41.69;101507.38;12257850;19;19918;-89
2023/05/17 02:01:43;;;;;;;;;;;13.50;39.70;;;12.26;41.74;101513.66;12258336;19;19926;-89
2023/05/17 02:05:45;;;;;;;;;;;13.60;39.70;;;12.12;41.83;101481.19;12254228;19;19919;-89
2023/05/17 02:09:46;;;;;;;;;;;13.50;39.70;;;12.29;41.76;101510.94;12258064;19;19915;-89
2023/05/17 02:13:48;;;;;;;;;;;13.40;39.70;;;12.27;41.66;101511.00;12252921;19;19918;-89
2023/05/17 02:17:49;;;;;;;;;;;13.40;39.70;;;12.30;41.75;101531.78;12255616;19;20433;-89
2023/05/17 02:21:51;;;;;;;;;;;13.40;39.70;;;12.02;41.81;101486.94;12255335;19;19923;-89
2023/05/17 02:25:53;;;;;;;;;;;13.40;39.70;;;11.98;41.97;101480.16;12254156;19;19927;-89
2023/05/17 02:29:55;;;;;;;;;;;13.40;39.70;;;12.17;41.72;101521.06;12253997;19;19919;-89
2023/05/17 02:34:01;;;;;;;;;;;13.30;39.70;;;12.16;42.00;101524.59;12251243;19;20219;-89
2023/05/17 02:38:02;;;;;;;;;;;13.30;39.70;;;12.14;41.88;101512.50;12253165;19;19982;-89
2023/05/17 02:42:04;;;;;;;;;;;13.30;39.80;;;11.87;41.71;101478.91;12253194;19;19926;-89
2023/05/17 02:46:05;;;;;;;;;;;13.20;39.70;;;12.05;41.77;101515.59;12250712;19;19990;-89
2023/05/17 02:50:07;;;;;;;;;;;13.20;39.70;;;12.08;41.79;101523.28;12254646;19;19919;-89
2023/05/17 02:54:09;;;;;;;;;;;13.20;39.80;;;11.78;41.76;101478.47;12249345;19;19925;-89
2023/05/17 02:58:11;;;;;;;;;;;13.10;39.70;;;11.78;41.83;101484.56;12252572;19;19926;-89
2023/05/17 03:02:12;;;;;;;;;;;13.10;39.80;;;11.80;41.92;101494.94;12251646;19;20337;-89
2023/05/17 03:06:14;;;;;;;;;;;13.10;39.80;;;11.87;41.88;101518.16;12250730;19;19911;-89
2023/05/17 03:10:16;;;;;;;;;;;13.00;39.80;;;11.82;42.00;101520.13;12265815;19;19914;-89
2023/05/17 03:14:19;;;;;;;;;;;13.00;39.80;;;11.71;42.06;101504.06;12261389;19;19915;-89
2023/05/17 03:18:21;;;;;;;;;;;13.00;39.90;;;11.76;41.96;101520.41;12264019;19;20309;-89
2023/05/17 03:22:23;;;;;;;;;;;13.00;40.00;;;11.56;42.02;101492.59;12264748;19;19951;-89
2023/05/17 03:26:26;;;;;;;;;;;13.00;40.10;;;11.78;42.04;101539.50;12259992;19;19965;-89
2023/05/17 03:30:28;;;;;;;;;;;12.90;40.10;;;11.79;42.23;101546.44;12263704;19;19922;-89
2023/05/17 03:34:30;;;;;;;;;;;12.90;40.10;;;11.76;42.18;101554.44;12259115;19;19911;-89
2023/05/17 03:38:32;;;;;;;;;;;12.90;40.20;;;11.78;42.23;101564.84;12264727;19;20301;-89
2023/05/17 03:42:33;;;;;;;;;;;13.00;40.30;;;11.65;42.17;101544.47;12266141;19;20282;-89
2023/05/17 03:46:37;;;;;;;;;;;12.90;40.30;;;11.79;42.33;101569.97;12257949;19;19930;-89
2023/05/17 03:50:42;;;;;;;;;;;13.00;40.40;;;11.74;42.32;101562.34;12263704;19;19914;-89
2023/05/17 03:54:44;;;;;;;;;;;12.90;40.40;;;11.70;42.22;101552.94;12259227;19;19915;-89
2023/05/17 03:58:46;;;;;;;;;;;13.00;40.50;;;11.55;42.38;101535.34;12261723;19;19942;-89
2023/05/17 04:02:47;;;;;;;;;;;13.00;40.50;;;11.51;42.28;101532.03;12255404;19;20322;-90
2023/05/17 04:06:49;;;;;;;;;;;13.00;40.50;;;11.76;42.23;101577.13;12255971;19;19915;-90
2023/05/17 04:10:51;;;;;;;;;;;13.00;40.60;;;11.73;42.36;101567.66;12260331;19;19919;-89
2023/05/17 04:14:52;;;;;;;;;;;13.00;40.60;;;11.63;42.47;101546.28;12254694;19;19919;-89
2023/05/17 04:18:54;;;;;;;;;;;13.00;40.70;;;11.77;42.39;101578.81;12258192;19;19919;-89
2023/05/17 04:22:55;;;;;;;;;;;13.00;40.80;;;11.84;42.48;101586.31;12257579;19;19919;-89
2023/05/17 04:26:59;;;;;;;;;;;13.00;40.90;;;11.57;42.58;101548.34;12252684;19;19921;-89
2023/05/17 04:31:01;;;;;;;;;;;13.20;41.10;;;11.72;42.64;101572.06;12251132;19;20382;-90
2023/05/17 04:35:03;;;;;;;;;;;13.10;41.10;;;11.69;42.65;101568.72;12250812;19;19983;-89
2023/05/17 04:39:04;;;;;;;;;;;13.10;41.20;;;11.91;42.45;101611.34;12256474;19;19914;-89
2023/05/17 04:43:07;;;;;;;;;;;13.20;41.30;;;11.86;42.62;101612.47;12252848;19;20284;-90
2023/05/17 04:47:08;;;;;;;;;;;13.10;41.30;;;11.81;42.83;101611.78;12250894;19;19926;-90
2023/05/17 04:51:10;;;;;;;;;;;13.20;41.30;;;11.91;42.80;101637.50;12254217;19;19919;-90
2023/05/17 04:55:12;;;;;;;;;;;13.20;41.30;;;11.90;42.72;101633.16;12252767;19;19914;-90
2023/05/17 04:59:13;;;;;;;;;;;13.20;41.20;;;12.06;42.80;101659.50;12256386;19;19940;-89
2023/05/17 05:03:15;;;;;;;;;;;13.30;41.80;;;12.07;42.98;101657.72;12255682;19;19915;-89
2023/05/17 05:07:17;;;;;;;;;;;13.30;41.60;;;12.06;42.91;101651.63;12254060;19;19918;-89
2023/05/17 05:11:20;;;;;;;;;;;13.50;41.60;;;12.10;43.04;101644.50;12255371;19;19926;-89
2023/05/17 05:15:22;;;;;;;;;;;13.40;41.50;;;12.11;42.98;101651.44;12250334;19;19926;-89
2023/05/17 05:19:29;;;;;;;;;;;13.50;41.60;;;12.18;42.93;101647.63;12256010;19;19915;-89
2023/05/17 05:23:32;;;;;;;;;;;13.50;41.60;;;12.34;42.93;101663.44;12253751;19;19986;-89
2023/05/17 05:27:34;;;;;;;;;;;13.60;41.60;;;12.27;43.12;101647.16;12255081;19;19919;-90
2023/05/17 05:31:36;;;;;;;;;;;13.60;41.60;;;12.30;43.22;101648.78;12252649;19;19936;-89
2023/05/17 05:35:39;;;;;;;;;;;13.70;41.60;;;12.38;43.13;101652.75;12251348;19;20346;-87
2023/05/17 05:39:41;;;;;;;;;;;13.70;42.00;;;12.54;43.04;101675.59;12254543;19;20332;-89
2023/05/17 05:43:43;;;;;;;;;;;13.80;41.80;;;12.65;43.12;101678.53;12252180;19;20573;-88
2023/05/17 05:47:45;;;;;;;;;;;13.90;41.70;;;12.72;43.26;101679.94;12251007;19;20280;-87
2023/05/17 05:51:47;;;;;;;;;;;14.00;42.10;;;12.64;43.36;101653.25;12252762;19;19915;-89
2023/05/17 05:55:50;;;;;;;;;;;14.10;42.10;;;12.84;43.49;101654.91;12249588;19;19954;-89
2023/05/17 05:59:53;;;;;;;;;;;14.30;41.90;;;13.07;43.49;101682.59;12254332;19;19936;-89
2023/05/17 06:03:55;;;;;;;;;;;14.40;41.70;;;13.26;43.35;101686.00;12250216;19;19915;-87
2023/05/17 06:07:57;;;;;;;;;;;14.50;42.20;;;13.39;43.54;101706.34;12250485;19;19914;-89
2023/05/17 06:12:00;;;;;;;;;;;14.70;41.90;;;13.47;43.36;101701.56;12250680;19;19919;-87
2023/05/17 06:16:01;;;;;;;;;;;14.80;41.90;;;13.62;43.30;101706.03;12246162;19;19930;-88
2023/05/17 06:20:03;;;;;;;;;;;14.90;41.40;;;13.48;43.30;101669.16;12248718;19;19910;-87
2023/05/17 06:24:05;;;;;;;;;;;15.00;41.30;;;13.77;43.34;101696.50;12239973;19;19927;-89
2023/05/17 06:28:08;;;;;;;;;;;15.10;41.30;;;13.69;43.27;101689.03;12246820;19;19944;-89
2023/05/17 06:32:09;;;;;;;;;;;15.10;41.10;;;13.85;43.25;101714.44;12245700;19;19922;-88
2023/05/17 06:36:10;;;;;;;;;;;15.20;41.00;;;13.71;43.24;101689.78;12232969;19;19919;-91
2023/05/17 06:40:12;;;;;;;;;;;15.20;40.80;;;13.55;43.19;101667.06;12247425;19;19931;-87
2023/05/17 06:44:13;;;;;;;;;;;15.20;40.70;;;13.63;43.16;101685.88;12256074;19;19946;-87
2023/05/17 06:48:15;;;;;;;;;;;15.20;40.80;;;13.76;43.15;101709.69;12253047;19;19986;-89
2023/05/17 06:52:16;;;;;;;;;;;15.20;40.80;;;13.81;43.34;101715.56;12256307;19;20245;-88
2023/05/17 06:56:18;;;;;;;;;;;15.30;40.60;;;13.85;43.26;101735.47;12242304;19;19926;-88
2023/05/17 07:00:20;;;;;;;;;;;15.20;40.50;;;13.79;43.23;101725.28;12253809;19;20361;-88
2023/05/17 07:04:21;;;;;;;;;;;15.20;40.40;;;13.77;43.21;101743.75;12256071;19;19934;-88
2023/05/17 07:08:23;;;;;;;;;;;15.10;40.40;;;13.73;43.27;101726.47;12258607;19;19926;-88
2023/05/17 07:12:24;;;;;;;;;;;15.20;40.40;;;13.81;43.12;101723.44;12256949;19;19975;-88
2023/05/17 07:16:26;;;;;;;;;;;15.20;40.30;;;13.96;43.10;101746.25;12250686;19;19918;-88
2023/05/17 07:20:27;;;;;;;;;;;15.20;40.40;;;14.09;43.11;101749.91;12256287;19;20388;-88
2023/05/17 07:24:29;;;;;;;;;;;15.40;40.50;;;14.16;43.24;101739.94;12248116;19;19919;-89
2023/05/17 07:28:30;;;;;;;;;;;15.40;40.40;;;14.10;43.09;101743.75;12256765;19;19918;-86
2023/05/17 07:32:32;;;;;;;;;;;15.50;40.70;;;14.29;43.25;101767.25;12255032;19;19921;-84
2023/05/17 07:36:34;;;;;;;;;;;15.60;40.20;;;14.31;43.31;101759.25;12245952;19;19933;-86
2023/05/17 07:40:35;;;;;;;;;;;15.70;40.10;;;14.47;43.12;101773.25;12254330;19;20539;-84
2023/05/17 07:44:37;;;;;;;;;;;15.80;40.10;;;14.55;43.12;101770.25;12250782;19;20688;-87
2023/05/17 07:48:39;;;;;;;;;;;15.90;40.00;;;14.78;43.20;101784.75;12260754;19;20329;-88
2023/05/17 07:52:41;;;;;;;;;;;16.00;40.00;;;14.53;43.14;101730.91;12260775;19;19930;-87
2023/05/17 07:56:45;;;;;;;;;;;16.20;40.10;;;14.79;43.32;101754.88;12277886;19;19923;-88
2023/05/17 08:00:48;;;;;;;;;;;16.40;40.10;;;15.09;42.93;101781.22;12283259;19;19943;-85
2023/05/17 08:04:52;;;;;;;;;;;16.50;39.60;;;15.01;43.27;101744.88;12259681;19;19943;-89
2023/05/17 08:08:57;;;;;;;;;;;16.70;39.60;;;14.92;43.00;101713.81;12257842;19;19923;-89
2023/05/17 08:12:59;;;;;;;;;;;16.90;39.50;;;15.65;43.10;101827.09;12254879;19;20389;-88
2023/05/17 08:17:01;;;;;;;;;;;17.00;39.40;;;15.64;43.13;101790.34;12257340;19;19966;-88
2023/05/17 08:21:03;;;;;;;;;;;17.10;39.10;;;15.55;42.91;101761.91;12260049;19;19910;-89
2023/05/17 08:25:06;;;;;;;;;;;17.30;38.60;;;16.00;42.93;101811.00;12255431;19;19934;-88
2023/05/17 08:29:08;;;;;;;;;;;17.30;39.00;;;16.04;43.11;101803.75;12255733;19;20291;-89
2023/05/17 08:33:10;;;;;;;;;;;17.40;38.70;;;16.17;42.79;101809.97;12250914;19;19947;-88
2023/05/17 08:37:11;;;;;;;;;;;17.60;39.00;;;16.33;42.79;101816.00;12253447;19;19950;-89
2023/05/17 08:41:13;;;;;;;;;;;17.70;39.20;;;16.35;42.84;101813.28;12250729;19;19914;-89
2023/05/17 08:45:15;;;;;;;;;;;17.70;39.10;;;16.44;43.03;101833.78;12249364;19;19919;-88
2023/05/17 08:49:17;;;;;;;;;;;17.80;39.20;;;16.41;42.93;101812.03;12252349;19;19910;-88
2023/05/17 08:53:19;;;;;;;;;;;17.90;39.30;;;16.48;42.60;101819.47;12247697;19;19923;-88
2023/05/17 08:57:23;;;;;;;;;;;17.90;39.00;;;16.60;42.73;101828.41;12250707;19;19990;-87
2023/05/17 09:01:25;;;;;;;;;;;18.00;38.10;;;16.60;42.56;101807.31;12244094;19;20336;-87
2023/05/17 09:05:27;;;;;;;;;;;18.10;38.60;;;16.61;42.67;101790.56;12243973;19;19919;-88
2023/05/17 09:09:28;;;;;;;;;;;18.10;38.80;;;16.74;42.66;101804.66;12248409;19;20462;-88
2023/05/17 09:13:30;;;;;;;;;;;18.20;38.10;;;16.78;42.52;101808.81;12248365;19;19938;-88
2023/05/17 09:17:32;;;;;;;;;;;18.30;38.30;;;17.04;42.28;101827.41;12246023;19;19940;-87
2023/05/17 09:21:36;;;;;;;;;;;18.40;38.30;;;17.11;42.41;101815.47;12249456;19;20265;-87
2023/05/17 09:25:37;;;;;;;;;;;18.40;38.10;;;17.23;42.48;101812.06;12249120;19;19918;-87
2023/05/17 09:29:39;;;;;;;;;;;18.60;37.90;;;17.39;42.53;101825.09;12246820;19;20347;-88
2023/05/17 09:33:48;;;;;;;;;;;18.60;38.20;;;17.43;42.15;101823.91;12246237;19;19943;-88
2023/05/17 09:37:50;;;;;;;;;;;18.80;38.70;;;17.52;42.35;101833.00;12246463;19;19982;-89
2023/05/17 09:41:55;;;;;;;;;;;18.90;38.10;;;17.54;42.26;101817.91;12241160;19;19944;-88
2023/05/17 09:45:57;;;;;;;;;;;19.00;37.90;;;17.70;42.00;101836.22;12247318;19;19914;-88
2023/05/17 09:50:02;;;;;;;;;;;19.00;37.40;;;17.74;42.00;101826.28;12248996;19;19923;-87
2023/05/17 09:54:05;;;;;;;;;;;19.10;37.90;;;17.91;42.33;101828.69;12244521;19;19923;-89
2023/05/17 09:58:07;;;;;;;;;;;19.20;38.00;;;17.98;42.18;101824.66;12255027;19;19911;-88
2023/05/17 10:02:14;;;;;;;;;;;19.30;37.80;;;18.08;41.90;101831.00;12242960;19;19952;-89
2023/05/17 10:06:18;;;;;;;;;;;19.40;36.70;;;17.92;41.88;101796.00;12240177;19;19940;-88
2023/05/17 10:10:20;;;;;;;;;;;19.50;37.50;;;17.97;41.95;101799.19;12245468;19;19915;-88
2023/05/17 10:14:25;;;;;;;;;;;19.50;37.50;;;18.28;41.87;101831.41;12241287;19;19919;-88
2023/05/17 10:18:28;;;;;;;;;;;19.60;37.40;;;18.30;41.63;101827.69;12242964;19;19930;-87
2023/05/17 10:22:30;;;;;;;;;;;19.70;37.60;;;18.32;41.91;101819.66;12245441;19;19907;-88
2023/05/17 10:26:32;;;;;;;;;;;19.70;36.90;;;18.37;41.68;101820.19;12240982;19;19978;-88
2023/05/17 10:30:34;;;;;;;;;;;19.80;36.60;;;18.48;41.85;101841.44;12247329;19;19918;-86
2023/05/17 10:34:38;;;;;;;;;;;19.80;37.50;;;18.55;41.57;101845.34;12239906;19;19915;-88
2023/05/17 10:38:40;;;;;;;;;;;19.90;37.30;;;18.51;41.42;101832.44;12244263;19;19918;-87
2023/05/17 10:42:43;;;;;;;;;;;19.90;36.70;;;18.57;41.37;101838.13;12245250;19;20301;-87
2023/05/17 10:46:56;;;;;;;;;;;19.90;37.10;;;18.68;41.65;101844.44;12242340;19;19928;-88
2023/05/17 10:51:06;;;;;;;;;;;20.00;36.90;;;18.79;41.18;101852.50;12246717;19;19929;-88
2023/05/17 10:55:08;;;;;;;;;;;20.00;37.10;;;18.82;41.38;101828.44;12241062;19;19944;-88
2023/05/17 10:59:23;;;;;;;;;;;20.10;36.90;;;18.92;41.29;101845.34;12245757;19;19911;-88
2023/05/17 11:03:28;;;;;;;;;;;20.20;37.00;;;18.89;41.10;101829.69;12245469;19;19927;-89
2023/05/17 11:07:32;;;;;;;;;;;20.20;37.00;;;19.00;41.18;101837.69;12245979;19;19918;-88
2023/05/17 11:11:34;;;;;;;;;;;20.30;36.80;;;19.01;41.20;101827.97;12246097;19;19914;-88
2023/05/17 11:15:36;;;;;;;;;;;20.30;37.10;;;19.08;41.17;101844.25;12240806;19;19919;-88
2023/05/17 11:19:37;;;;;;;;;;;20.40;37.10;;;19.16;41.18;101841.88;12238982;19;19940;-88
2023/05/17 11:23:41;;;;;;;;;;;20.50;36.60;;;19.09;40.92;101819.44;12240840;19;19982;-89
2023/05/17 11:27:45;;;;;;;;;;;20.50;36.90;;;19.27;40.67;101849.03;12246889;19;19923;-88
2023/05/17 11:31:50;;;;;;;;;;;20.50;36.10;;;19.21;40.83;101853.81;12250738;19;20013;-88
2023/05/17 11:35:53;;;;;;;;;;;20.50;35.50;;;19.15;40.73;101841.03;12256426;19;19918;-87
2023/05/17 11:40:06;;;;;;;;;;;20.50;36.20;;;19.28;40.70;101854.22;12257044;19;19931;-88
2023/05/17 11:44:08;;;;;;;;;;;20.50;36.00;;;19.33;40.53;101841.47;12252619;19;19933;-86
2023/05/17 11:48:11;;;;;;;;;;;20.50;35.80;;;19.37;40.54;101829.69;12253080;19;19915;-86
2023/05/17 11:52:15;;;;;;;;;;;20.60;36.60;;;19.17;40.27;101810.00;12252325;19;19911;-88
2023/05/17 11:56:17;;;;;;;;;;;20.60;35.30;;;19.39;40.33;101838.38;12248488;19;19939;-88
2023/05/17 12:00:23;;;;;;;;;;;20.70;35.50;;;19.42;40.12;101851.41;12253914;19;19935;-89
2023/05/17 12:04:26;;;;;;;;;;;20.70;35.20;;;19.36;40.51;101846.56;12254249;19;19915;-88
2023/05/17 12:08:27;;;;;;;;;;;20.60;35.60;;;19.48;40.26;101838.66;12255457;19;19958;-88
2023/05/17 12:12:29;;;;;;;;;;;20.70;36.00;;;19.54;40.34;101830.22;12253167;19;19930;-88
2023/05/17 12:16:32;;;;;;;;;;;20.70;35.10;;;19.62;39.95;101833.97;12251501;19;19934;-89
2023/05/17 12:20:36;;;;;;;;;;;20.80;36.20;;;19.65;40.00;101833.75;12254407;19;19918;-88
2023/05/17 12:24:39;;;;;;;;;;;20.90;33.20;;;19.73;40.04;101856.22;12252271;19;20324;-88
2023/05/17 12:28:43;;;;;;;;;;;20.90;35.60;;;19.72;40.17;101843.94;12256836;19;19930;-88
2023/05/17 12:32:45;;;;;;;;;;;20.90;35.30;;;19.59;39.70;101825.44;12255834;19;20625;-88
2023/05/17 12:36:47;;;;;;;;;;;21.00;35.70;;;19.66;39.71;101822.25;12252702;19;19917;-88
2023/05/17 12:40:48;;;;;;;;;;;21.00;35.30;;;19.83;39.70;101839.50;12254368;19;19922;-88
2023/05/17 12:44:50;;;;;;;;;;;21.00;35.90;;;19.61;39.64;101807.63;12246335;19;20710;-88
2023/05/17 12:48:53;;;;;;;;;;;21.00;35.70;;;19.87;39.82;101843.63;12249736;19;19978;-88
2023/05/17 12:52:55;;;;;;;;;;;21.10;36.00;;;19.98;39.51;101857.84;12247374;19;19927;-88
2023/05/17 12:56:57;;;;;;;;;;;21.10;35.70;;;20.06;39.88;101839.53;12249525;19;19926;-87
2023/05/17 13:01:05;;;;;;;;;;;21.20;35.20;;;19.93;39.62;101818.44;12253629;19;19939;-87
2023/05/17 13:05:17;;;;;;;;;;;21.20;34.10;;;20.07;39.38;101841.22;12251867;19;19915;-89
2023/05/17 13:09:23;;;;;;;;;;;21.20;35.30;;;19.98;39.55;101826.00;12242893;19;20229;-87
2023/05/17 13:13:24;;;;;;;;;;;21.20;35.80;;;20.07;39.36;101842.06;12249382;19;19926;-87
2023/05/17 13:17:34;;;;;;;;;;;21.30;35.10;;;20.10;39.41;101840.97;12252826;19;19915;-88
2023/05/17 13:21:35;;;;;;;;;;;21.30;34.30;;;20.00;39.46;101835.53;12251408;19;20022;-88
2023/05/17 13:25:37;;;;;;;;;;;21.30;33.80;;;20.01;39.46;101837.25;12251853;19;19978;-88
2023/05/17 13:29:40;;;;;;;;;;;21.30;34.60;;;20.12;39.28;101839.06;12252454;19;19907;-89
2023/05/17 13:33:43;;;;;;;;;;;21.30;34.90;;;20.11;39.07;101838.19;12246373;19;19942;-88
2023/05/17 13:37:45;;;;;;;;;;;21.30;34.20;;;20.23;39.28;101856.78;12250998;19;19919;-87
2023/05/17 13:41:46;;;;;;;;;;;21.30;35.10;;;20.28;39.23;101855.47;12253817;19;19998;-88
2023/05/17 13:45:53;;;;;;;;;;;21.40;35.30;;;20.30;39.15;101857.97;12247017;19;19929;-88
2023/05/17 13:49:54;;;;;;;;;;;21.40;35.20;;;20.35;39.12;101863.78;12249817;19;20423;-86
2023/05/17 13:53:56;;;;;;;;;;;21.40;35.40;;;20.32;38.90;101848.09;12248689;19;19921;-88
2023/05/17 13:57:57;;;;;;;;;;;21.50;35.30;;;20.35;38.71;101847.84;12252260;19;20368;-87
2023/05/17 14:02:00;;;;;;;;;;;21.50;35.60;;;20.22;38.97;101840.00;12251035;19;20512;-87
2023/05/17 14:06:05;;;;;;;;;;;21.40;34.00;;;20.29;38.82;101857.16;12249485;19;19915;-87
2023/05/17 14:10:11;;;;;;;;;;;21.50;35.20;;;20.41;38.70;101867.75;12253441;19;19955;-88
2023/05/17 14:14:13;;;;;;;;;;;21.50;34.60;;;20.40;38.96;101861.59;12251122;19;19919;-88
2023/05/17 14:18:15;;;;;;;;;;;21.50;34.80;;;20.39;38.45;101861.72;12251788;19;20517;-88
2023/05/17 14:22:16;;;;;;;;;;;21.50;34.70;;;20.41;38.80;101875.72;12251981;19;19915;-88
2023/05/17 14:26:17;;;;;;;;;;;21.50;35.20;;;20.32;38.74;101861.38;12240475;19;19918;-88
2023/05/17 14:30:19;;;;;;;;;;;21.50;35.30;;;20.22;38.73;101840.00;12250261;19;19926;-87
2023/05/17 14:34:21;;;;;;;;;;;21.50;35.10;;;20.39;38.46;101862.59;12245055;19;19933;-88
2023/05/17 14:38:23;;;;;;;;;;;21.60;35.20;;;20.48;38.35;101882.25;12248170;19;19990;-87
2023/05/17 14:42:25;;;;;;;;;;;21.60;35.20;;;20.48;38.66;101885.72;12247007;19;19927;-87
2023/05/17 14:46:27;;;;;;;;;;;21.60;34.80;;;20.46;38.16;101885.00;12246951;19;19915;-87
2023/05/17 14:50:31;;;;;;;;;;;21.60;35.20;;;20.52;38.58;101900.47;12247797;19;19915;-87
2023/05/17 14:54:34;;;;;;;;;;;21.60;35.20;;;20.41;38.27;101895.13;12247394;19;19919;-88
2023/05/17 14:58:36;;;;;;;;;;;21.50;34.80;;;20.40;38.37;101912.03;12246924;19;19955;-89
2023/05/17 15:02:38;;;;;;;;;;;21.60;35.10;;;20.31;38.22;101904.78;12253755;19;20628;-89
2023/05/17 15:06:40;;;;;;;;;;;21.50;35.40;;;20.30;37.98;101906.56;12255508;19;19918;-87
2023/05/17 15:10:42;;;;;;;;;;;21.40;35.20;;;20.23;38.21;101908.03;12263920;19;20345;-82
2023/05/17 15:14:45;;;;;;;;;;;21.30;35.40;;;20.16;38.16;101908.63;12254450;19;19954;-86
2023/05/17 15:18:47;;;;;;;;;;;21.30;34.60;;;20.11;38.27;101917.75;12256940;19;20084;-86
2023/05/17 15:22:48;;;;;;;;;;;21.20;35.20;;;20.05;37.86;101906.78;12254945;19;19967;-86
2023/05/17 15:26:50;;;;;;;;;;;21.10;35.00;;;20.05;38.06;101906.78;12249738;19;19919;-86
2023/05/17 15:31:05;;;;;;;;;;;21.10;34.90;;;20.13;38.05;101922.13;12255934;19;19919;-85
2023/05/17 15:35:06;;;;;;;;;;;21.10;34.00;;;19.92;37.91;101895.44;12253211;19;20289;-86
2023/05/17 15:39:09;;;;;;;;;;;21.10;33.20;;;20.07;37.82;101928.75;12258307;19;19925;-85
2023/05/17 15:43:10;;;;;;;;;;;21.10;34.60;;;20.00;37.81;101919.56;12259061;19;19927;-85
2023/05/17 15:47:12;;;;;;;;;;;21.10;32.70;;;19.96;37.94;101921.59;12256045;19;19919;-86
2023/05/17 15:51:14;;;;;;;;;;;21.00;34.00;;;19.94;38.04;101914.72;12253310;19;19965;-86
2023/05/17 15:55:16;;;;;;;;;;;21.00;34.10;;;19.92;37.84;101912.19;12250500;19;19978;-84
2023/05/17 15:59:18;;;;;;;;;;;21.00;32.80;;;19.82;37.46;101903.22;12254380;19;19939;-84
2023/05/17 16:03:19;;;;;;;;;;;20.90;33.80;;;19.77;37.50;101916.00;12251905;19;19930;-85
2023/05/17 16:07:21;;;;;;;;;;;20.90;33.50;;;19.75;37.86;101926.72;12253480;19;19919;-85
2023/05/17 16:11:23;;;;;;;;;;;20.80;33.30;;;19.61;37.82;101919.75;12258246;19;20307;-85
2023/05/17 16:15:25;;;;;;;;;;;20.80;34.10;;;19.73;37.38;101952.47;12248867;19;19974;-85
2023/05/17 16:19:29;;;;;;;;;;;20.70;34.30;;;19.58;37.49;101927.94;12257671;19;19940;-85
2023/05/17 16:23:30;;;;;;;;;;;20.70;34.00;;;19.65;37.40;101962.78;12258954;19;19926;-85
2023/05/17 16:27:32;;;;;;;;;;;20.70;33.20;;;19.60;37.20;101964.91;12256175;19;19914;-85
2023/05/17 16:31:33;;;;;;;;;;;20.60;33.90;;;19.42;37.50;101946.78;12251394;19;19940;-85
2023/05/17 16:35:35;;;;;;;;;;;20.60;33.60;;;19.57;37.40;101965.97;12242535;19;19933;-85
2023/05/17 16:39:36;;;;;;;;;;;20.50;34.00;;;19.42;37.48;101954.72;12256277;19;19915;-84
2023/05/17 16:43:37;;;;;;;;;;;20.50;34.50;;;19.45;37.39;101973.03;12255239;19;19974;-84
2023/05/17 16:47:39;;;;;;;;;;;20.50;34.60;;;19.49;37.27;101973.66;12257074;19;20340;-85
2023/05/17 16:51:41;;;;;;;;;;;20.40;34.10;;;19.34;37.54;101961.53;12258418;19;19931;-85
2023/05/17 16:55:42;;;;;;;;;;;20.40;33.70;;;19.34;37.42;101965.03;12252850;19;19923;-84
2023/05/17 16:59:43;;;;;;;;;;;20.40;34.10;;;19.27;37.17;101966.41;12256567;19;19919;-84
2023/05/17 17:03:45;;;;;;;;;;;20.30;32.80;;;19.13;36.94;101956.81;12254878;19;19919;-85
2023/05/17 17:07:47;;;;;;;;;;;20.20;33.10;;;19.11;36.93;101977.25;12256117;19;19994;-85
2023/05/17 17:11:48;;;;;;;;;;;20.20;32.50;;;19.01;37.24;101974.44;12256266;19;19915;-85
2023/05/17 17:15:50;;;;;;;;;;;20.10;32.70;;;18.94;37.19;101973.16;12255634;19;19914;-84
2023/05/17 17:19:52;;;;;;;;;;;20.00;33.50;;;18.90;37.12;101971.72;12253902;19;19915;-84
2023/05/17 17:23:53;;;;;;;;;;;19.90;32.20;;;18.80;36.83;101960.06;12254925;19;20256;-85
2023/05/17 17:27:55;;;;;;;;;;;19.80;33.20;;;18.60;36.85;101942.03;12254649;19;19942;-85
2023/05/17 17:31:56;;;;;;;;;;;19.80;33.60;;;18.71;36.98;101965.94;12257629;19;20025;-84
2023/05/17 17:35:58;;;;;;;;;;;19.80;33.20;;;18.66;36.83;101979.53;12249311;19;19928;-84
2023/05/17 17:40:00;;;;;;;;;;;19.70;33.50;;;18.40;36.89;101954.03;12255621;19;20368;-84
2023/05/17 17:44:01;;;;;;;;;;;19.60;33.40;;;18.42;36.94;101968.00;12251178;19;19907;-84
2023/05/17 17:48:03;;;;;;;;;;;19.50;32.40;;;18.28;37.05;101967.13;12248220;19;19997;-84
2023/05/17 17:52:05;;;;;;;;;;;19.40;33.40;;;18.30;37.04;101982.88;12249036;19;19922;-85
2023/05/17 17:56:07;;;;;;;;;;;19.30;33.80;;;18.11;37.16;101965.59;12248630;19;19926;-85
2023/05/17 18:00:09;;;;;;;;;;;19.30;33.70;;;18.19;37.11;101985.41;12253447;19;19911;-85
2023/05/17 18:04:13;;;;;;;;;;;19.20;33.90;;;18.18;36.82;102005.72;12251170;19;19918;-89
2023/05/17 18:08:15;;;;;;;;;;;19.20;34.30;;;18.18;36.97;102021.59;12252441;19;19944;-89
2023/05/17 18:12:17;;;;;;;;;;;19.20;34.50;;;18.11;37.00;102010.56;12251099;19;19939;-88
2023/05/17 18:16:18;;;;;;;;;;;19.10;34.00;;;18.08;36.76;102016.03;12248167;19;19947;-89